createdAt,value
2019-02-27T00:00:43.928Z,7.211914
2019-02-27T00:01:52.842Z,7.201843
2019-02-27T00:03:02.470Z,7.232056
2019-02-27T00:04:12.206Z,7.232056
2019-02-27T00:05:21.851Z,7.232056
2019-02-27T00:06:31.351Z,7.232056
2019-02-27T00:07:40.851Z,7.232056
2019-02-27T00:08:50.349Z,7.232056
2019-02-27T00:10:00.836Z,7.232056
2019-02-27T00:11:12.327Z,7.211914
2019-02-27T00:12:20.013Z,7.201843
2019-02-27T00:13:29.378Z,7.181702
2019-02-27T00:14:38.881Z,7.171631
2019-02-27T00:15:48.401Z,7.151489
2019-02-27T00:16:57.903Z,7.151489
2019-02-27T00:18:08.397Z,7.151489
2019-02-27T00:19:17.917Z,7.151489
2019-02-27T00:20:27.437Z,7.151489
2019-02-27T00:21:37.930Z,7.141418
2019-02-27T00:22:47.827Z,7.141418
2019-02-27T00:23:57.409Z,7.141418
2019-02-27T00:25:06.413Z,7.131348
2019-02-27T00:26:15.926Z,7.151489
2019-02-27T00:27:25.428Z,7.151489
2019-02-27T00:28:34.964Z,7.141418
2019-02-27T00:29:44.467Z,7.141418
2019-02-27T00:30:53.977Z,7.171631
2019-02-27T00:32:03.479Z,7.171631
2019-02-27T00:33:12.981Z,7.181702
2019-02-27T00:34:23.476Z,7.181702
2019-02-27T00:35:33.971Z,7.181702
2019-02-27T00:36:45.043Z,7.171631
2019-02-27T00:37:53.044Z,7.181702
2019-02-27T00:39:02.542Z,7.181702
2019-02-27T00:40:12.040Z,7.181702
2019-02-27T00:41:21.559Z,7.181702
2019-02-27T00:42:33.624Z,7.171631
2019-02-27T00:43:40.639Z,7.171631
2019-02-27T00:44:50.140Z,7.171631
2019-02-27T00:45:59.661Z,7.171631
2019-02-27T00:47:09.221Z,7.151489
2019-02-27T00:48:19.718Z,7.151489
2019-02-27T00:49:29.801Z,7.141418
2019-02-27T00:50:39.078Z,7.141418
2019-02-27T00:51:48.213Z,7.131348
2019-02-27T00:52:57.706Z,7.101135
2019-02-27T00:54:07.212Z,7.101135
2019-02-27T00:55:16.718Z,7.111206
2019-02-27T00:56:26.238Z,7.101135
2019-02-27T00:57:35.740Z,7.060852
2019-02-27T00:58:45.240Z,7.050781
2019-02-27T00:59:54.740Z,7.03064
2019-02-27T01:01:05.239Z,7.020569
2019-02-27T01:02:14.741Z,7.000427
2019-02-27T01:03:26.156Z,6.990356
2019-02-27T01:04:35.101Z,6.990356
2019-02-27T01:05:43.221Z,6.990356
2019-02-27T01:06:52.757Z,6.990356
2019-02-27T01:08:02.257Z,6.990356
2019-02-27T01:09:11.758Z,6.960144
2019-02-27T01:10:21.260Z,6.970215
2019-02-27T01:11:30.785Z,6.970215
2019-02-27T01:12:40.297Z,6.970215
2019-02-27T01:13:49.798Z,6.970215
2019-02-27T01:14:59.299Z,6.970215
2019-02-27T01:16:09.790Z,6.990356
2019-02-27T01:17:20.881Z,6.990356
2019-02-27T01:18:30.664Z,7.000427
2019-02-27T01:19:39.122Z,6.990356
2019-02-27T01:20:47.782Z,6.990356
2019-02-27T01:21:57.293Z,6.970215
2019-02-27T01:23:10.835Z,6.970215
2019-02-27T01:24:17.403Z,6.960144
2019-02-27T01:25:25.778Z,6.929932
2019-02-27T01:26:35.286Z,6.919861
2019-02-27T01:27:44.794Z,6.919861
2019-02-27T01:28:54.302Z,6.889648
2019-02-27T01:30:03.805Z,6.879578
2019-02-27T01:31:13.299Z,6.879578
2019-02-27T01:32:23.815Z,6.849365
2019-02-27T01:33:37.713Z,6.849365
2019-02-27T01:34:44.424Z,6.839294
2019-02-27T01:35:52.380Z,6.819153
2019-02-27T01:37:01.801Z,6.809082
2019-02-27T01:38:11.298Z,6.809082
2019-02-27T01:39:20.933Z,6.768799
2019-02-27T01:40:30.437Z,6.768799
2019-02-27T01:41:39.948Z,6.718445
2019-02-27T01:42:49.447Z,6.688232
2019-02-27T01:43:59.002Z,6.65802
2019-02-27T01:45:08.496Z,6.65802
2019-02-27T01:46:19.011Z,6.617737
2019-02-27T01:47:29.506Z,6.617737
2019-02-27T01:48:42.549Z,6.597595
2019-02-27T01:49:49.106Z,6.587524
2019-02-27T01:50:57.961Z,6.587524
2019-02-27T01:52:07.471Z,6.597595
2019-02-27T01:53:16.996Z,6.617737
2019-02-27T01:54:26.499Z,6.627808
2019-02-27T01:55:36.021Z,6.617737
2019-02-27T01:56:45.537Z,6.597595
2019-02-27T01:57:55.040Z,6.597595
2019-02-27T01:59:04.537Z,6.587524
2019-02-27T02:00:15.025Z,6.517029
2019-02-27T02:01:24.509Z,6.456604
2019-02-27T02:02:34.867Z,6.436462
2019-02-27T02:03:47.139Z,6.40625
2019-02-27T02:04:53.701Z,6.386108
2019-02-27T02:06:02.474Z,6.386108
2019-02-27T02:07:12.007Z,6.345825
2019-02-27T02:08:21.522Z,6.305542
2019-02-27T02:09:31.019Z,6.224976
2019-02-27T02:10:40.519Z,6.144409
2019-02-27T02:11:50.053Z,6.073914
2019-02-27T02:12:59.553Z,5.993347
2019-02-27T02:14:09.055Z,5.892639
2019-02-27T02:15:19.556Z,5.802002
2019-02-27T02:16:29.050Z,5.751648
2019-02-27T02:17:40.990Z,5.691223
2019-02-27T02:18:48.754Z,5.65094
2019-02-27T02:19:57.532Z,5.691223
2019-02-27T02:21:07.032Z,5.751648
2019-02-27T02:22:16.551Z,5.802002
2019-02-27T02:23:26.057Z,5.832214
2019-02-27T02:24:35.556Z,5.842285
2019-02-27T02:25:45.057Z,5.842285
2019-02-27T02:26:54.558Z,5.842285
2019-02-27T02:28:04.070Z,5.842285
2019-02-27T02:29:14.555Z,5.862427
2019-02-27T02:30:29.131Z,5.862427
2019-02-27T02:31:33.526Z,5.862427
2019-02-27T02:32:43.012Z,5.822144
2019-02-27T02:33:53.492Z,5.822144
2019-02-27T02:35:03.973Z,5.822144
2019-02-27T02:36:14.468Z,5.822144
2019-02-27T02:37:24.953Z,5.802002
2019-02-27T02:38:35.440Z,5.791931
2019-02-27T02:39:44.948Z,5.711365
2019-02-27T02:40:55.427Z,5.681152
2019-02-27T02:42:05.918Z,5.65094
2019-02-27T02:43:15.432Z,5.640869
2019-02-27T02:44:24.929Z,5.610657
2019-02-27T02:45:34.432Z,5.560303
2019-02-27T02:46:45.267Z,5.540161
2019-02-27T02:47:55.781Z,5.53009
2019-02-27T02:49:06.150Z,5.540161
2019-02-27T02:50:17.362Z,5.540161
2019-02-27T02:51:21.900Z,5.509949
2019-02-27T02:52:31.391Z,5.509949
2019-02-27T02:53:41.878Z,5.509949
2019-02-27T02:54:51.357Z,5.499878
2019-02-27T02:56:00.865Z,5.499878
2019-02-27T02:57:10.364Z,5.479736
2019-02-27T02:58:19.877Z,5.439453
2019-02-27T02:59:29.379Z,5.389099
2019-02-27T03:00:39.272Z,5.358887
2019-02-27T03:01:49.142Z,5.318604
2019-02-27T03:03:00.756Z,5.288391
2019-02-27T03:04:12.438Z,5.27832
2019-02-27T03:05:16.901Z,5.27832
2019-02-27T03:06:26.386Z,5.248108
2019-02-27T03:07:36.864Z,5.207825
2019-02-27T03:08:46.345Z,5.167542
2019-02-27T03:09:56.833Z,5.097046
2019-02-27T03:11:07.310Z,5.107117
2019-02-27T03:12:17.831Z,5.117188
2019-02-27T03:13:28.336Z,5.117188
2019-02-27T03:14:38.823Z,5.137329
2019-02-27T03:15:49.330Z,5.107117
2019-02-27T03:16:59.875Z,5.076904
2019-02-27T03:18:09.400Z,5.066833
2019-02-27T03:19:18.906Z,5.076904
2019-02-27T03:20:28.417Z,5.076904
2019-02-27T03:21:37.914Z,5.107117
2019-02-27T03:22:47.429Z,5.107117
2019-02-27T03:23:57.942Z,5.117188
2019-02-27T03:25:07.442Z,5.107117
2019-02-27T03:26:17.763Z,5.097046
2019-02-27T03:27:30.494Z,5.107117
2019-02-27T03:28:40.527Z,5.107117
2019-02-27T03:29:51.888Z,5.107117
2019-02-27T03:30:54.942Z,5.076904
2019-02-27T03:32:04.435Z,5.036621
2019-02-27T03:33:22.654Z,4.986267
2019-02-27T03:34:24.429Z,4.956055
2019-02-27T03:35:33.930Z,4.89563
2019-02-27T03:36:43.428Z,4.855347
2019-02-27T03:37:52.959Z,4.835205
2019-02-27T03:39:02.447Z,4.784851
2019-02-27T03:40:11.980Z,4.754639
2019-02-27T03:41:22.765Z,4.744568
2019-02-27T03:42:34.091Z,4.714355
2019-02-27T03:43:45.612Z,4.704285
2019-02-27T03:44:55.691Z,4.674072
2019-02-27T03:46:02.932Z,4.633789
2019-02-27T03:47:08.957Z,4.603577
2019-02-27T03:48:18.432Z,4.623718
2019-02-27T03:49:28.938Z,4.603577
2019-02-27T03:50:39.424Z,4.583435
2019-02-27T03:51:49.919Z,4.583435
2019-02-27T03:53:00.387Z,4.563293
2019-02-27T03:54:10.979Z,4.553223
2019-02-27T03:55:21.371Z,4.533081
2019-02-27T03:56:31.852Z,4.52301
2019-02-27T03:57:42.335Z,4.452515
2019-02-27T03:58:52.834Z,4.402161
2019-02-27T04:00:03.369Z,4.321594
2019-02-27T04:01:13.857Z,4.220886
2019-02-27T04:02:23.354Z,4.130249
2019-02-27T04:03:32.859Z,4.039612
2019-02-27T04:04:42.375Z,3.959045
2019-02-27T04:05:51.877Z,3.938904
2019-02-27T04:07:01.376Z,3.959045
2019-02-27T04:08:10.882Z,4.01947
2019-02-27T04:09:20.413Z,4.059753
2019-02-27T04:10:31.226Z,4.130249
2019-02-27T04:11:42.536Z,4.220886
2019-02-27T04:12:51.609Z,4.301453
2019-02-27T04:14:02.920Z,4.321594
2019-02-27T04:15:07.863Z,4.341736
2019-02-27T04:16:18.342Z,4.321594
2019-02-27T04:17:28.825Z,4.341736
2019-02-27T04:18:38.331Z,4.321594
2019-02-27T04:19:47.861Z,4.311523
2019-02-27T04:20:57.396Z,4.321594
2019-02-27T04:22:06.920Z,4.301453
2019-02-27T04:23:16.408Z,4.301453
2019-02-27T04:24:25.940Z,4.241028
2019-02-27T04:25:35.447Z,4.230957
2019-02-27T04:26:44.952Z,4.200745
2019-02-27T04:27:55.468Z,4.200745
2019-02-27T04:29:06.214Z,4.190674
2019-02-27T04:30:14.955Z,4.170532
2019-02-27T04:31:22.984Z,4.160461
2019-02-27T04:32:32.463Z,4.14032
2019-02-27T04:33:41.978Z,4.120178
2019-02-27T04:34:51.508Z,4.100037
2019-02-27T04:36:01.023Z,4.059753
2019-02-27T04:37:11.538Z,4.059753
2019-02-27T04:38:22.027Z,4.039612
2019-02-27T04:39:31.502Z,4.009399
2019-02-27T04:40:41.681Z,3.959045
2019-02-27T04:41:51.884Z,3.948975
2019-02-27T04:43:00.036Z,3.938904
2019-02-27T04:44:09.562Z,3.908691
2019-02-27T04:45:19.073Z,3.878479
2019-02-27T04:46:28.583Z,3.878479
2019-02-27T04:47:38.119Z,3.878479
2019-02-27T04:48:47.635Z,3.858337
2019-02-27T04:49:57.151Z,3.828125
2019-02-27T04:51:06.653Z,3.807983
2019-02-27T04:52:17.167Z,3.807983
2019-02-27T04:53:31.453Z,3.807983
2019-02-27T04:54:36.173Z,3.797913
2019-02-27T04:55:47.955Z,3.797913
2019-02-27T04:56:57.543Z,3.797913
2019-02-27T04:58:08.496Z,3.777771
2019-02-27T04:59:18.185Z,3.7677
2019-02-27T05:00:26.025Z,3.727417
2019-02-27T05:01:36.107Z,3.646851
2019-02-27T05:02:42.719Z,3.556213
2019-02-27T05:03:53.217Z,3.475647
2019-02-27T05:05:02.743Z,3.405151
2019-02-27T05:06:14.381Z,3.324585
2019-02-27T05:07:21.770Z,3.233948
2019-02-27T05:08:31.272Z,3.143311
2019-02-27T05:09:40.796Z,3.103027
2019-02-27T05:10:50.297Z,3.042603
2019-02-27T05:11:59.823Z,2.982178
2019-02-27T05:13:09.333Z,2.931824
2019-02-27T05:14:19.943Z,2.972107
2019-02-27T05:15:29.444Z,3.052673
2019-02-27T05:16:39.936Z,3.103027
2019-02-27T05:17:49.454Z,3.13324
2019-02-27T05:19:03.510Z,3.143311
2019-02-27T05:20:12.392Z,3.163452
2019-02-27T05:21:19.721Z,3.233948
2019-02-27T05:22:28.448Z,3.26416
2019-02-27T05:23:37.960Z,3.294373
2019-02-27T05:24:47.457Z,3.314514
2019-02-27T05:25:57.007Z,3.344727
2019-02-27T05:27:06.546Z,3.374939
2019-02-27T05:28:16.051Z,3.445435
2019-02-27T05:29:25.585Z,3.475647
2019-02-27T05:30:36.057Z,3.495789
2019-02-27T05:31:46.544Z,3.495789
2019-02-27T05:32:56.052Z,3.526001
2019-02-27T05:34:05.542Z,3.505859
2019-02-27T05:35:15.029Z,3.475647
2019-02-27T05:36:25.506Z,3.435364
2019-02-27T05:37:36.068Z,3.395081
2019-02-27T05:38:44.520Z,3.364868
2019-02-27T05:39:54.073Z,3.324585
2019-02-27T05:41:03.556Z,3.233948
2019-02-27T05:42:13.252Z,3.163452
2019-02-27T05:43:22.580Z,3.052673
2019-02-27T05:44:32.133Z,3.002319
2019-02-27T05:45:41.639Z,2.921753
2019-02-27T05:46:51.189Z,2.831116
2019-02-27T05:48:00.701Z,2.740479
2019-02-27T05:49:10.197Z,2.680054
2019-02-27T05:50:19.707Z,2.599487
2019-02-27T05:51:29.233Z,2.50885
2019-02-27T05:52:38.762Z,2.458496
2019-02-27T05:53:49.248Z,2.37793
2019-02-27T05:54:59.764Z,2.307434
2019-02-27T05:56:09.315Z,2.307434
2019-02-27T05:57:21.012Z,2.25708
2019-02-27T05:58:28.393Z,2.247009
2019-02-27T05:59:37.938Z,2.216797
2019-02-27T06:00:47.502Z,2.176514
2019-02-27T06:01:57.082Z,2.166443
2019-02-27T06:03:06.634Z,2.13623
2019-02-27T06:04:18.162Z,2.095947
2019-02-27T06:05:26.770Z,2.065735
2019-02-27T06:06:37.326Z,1.995239
2019-02-27T06:07:46.884Z,1.985168
2019-02-27T06:08:56.456Z,1.965027
2019-02-27T06:10:06.022Z,1.965027
2019-02-27T06:11:15.555Z,1.954956
2019-02-27T06:12:25.161Z,1.924744
2019-02-27T06:13:34.740Z,1.914673
2019-02-27T06:14:45.306Z,1.87439
2019-02-27T06:15:55.872Z,1.773682
2019-02-27T06:17:06.432Z,1.763611
2019-02-27T06:18:15.980Z,1.773682
2019-02-27T06:19:25.545Z,1.813965
2019-02-27T06:20:35.089Z,1.844177
2019-02-27T06:21:44.670Z,1.844177
2019-02-27T06:22:55.213Z,1.813965
2019-02-27T06:24:05.805Z,1.844177
2019-02-27T06:25:21.461Z,1.783752
2019-02-27T06:26:24.870Z,1.803894
2019-02-27T06:27:34.425Z,1.813965
2019-02-27T06:28:44.030Z,1.854248
2019-02-27T06:29:56.579Z,1.894531
2019-02-27T06:31:03.255Z,1.924744
2019-02-27T06:32:12.932Z,1.965027
2019-02-27T06:33:22.357Z,2.055664
2019-02-27T06:34:31.933Z,2.12616
2019-02-27T06:35:41.499Z,2.146301
2019-02-27T06:36:51.052Z,2.176514
2019-02-27T06:38:00.653Z,2.236938
2019-02-27T06:39:10.229Z,2.307434
2019-02-27T06:40:19.827Z,2.357788
2019-02-27T06:41:29.431Z,2.428284
2019-02-27T06:42:40.033Z,2.498779
2019-02-27T06:43:49.601Z,2.539062
2019-02-27T06:45:00.177Z,2.609558
2019-02-27T06:46:10.672Z,2.669983
2019-02-27T06:47:21.250Z,2.720337
2019-02-27T06:48:30.845Z,2.800903
2019-02-27T06:49:41.385Z,2.891541
2019-02-27T06:50:51.960Z,3.002319
2019-02-27T06:52:02.496Z,3.143311
2019-02-27T06:53:15.389Z,3.26416
2019-02-27T06:54:21.610Z,3.435364
2019-02-27T06:55:31.177Z,3.576355
2019-02-27T06:56:40.724Z,3.737488
2019-02-27T06:57:50.296Z,3.868408
2019-02-27T06:58:59.946Z,4.049683
2019-02-27T07:00:09.517Z,4.190674
2019-02-27T07:01:19.088Z,4.311523
2019-02-27T07:02:28.632Z,4.452515
2019-02-27T07:03:38.253Z,4.593506
2019-02-27T07:04:47.829Z,4.684143
2019-02-27T07:05:57.430Z,4.804993
2019-02-27T07:07:07.048Z,4.915771
2019-02-27T07:08:16.606Z,5.076904
2019-02-27T07:09:26.145Z,5.288391
2019-02-27T07:10:35.720Z,5.469666
2019-02-27T07:11:46.402Z,5.661011
2019-02-27T07:12:55.390Z,5.842285
2019-02-27T07:14:04.422Z,5.973206
2019-02-27T07:15:14.040Z,6.073914
2019-02-27T07:16:23.780Z,6.224976
2019-02-27T07:17:33.214Z,6.386108
2019-02-27T07:18:42.818Z,6.517029
2019-02-27T07:19:52.436Z,6.587524
2019-02-27T07:21:01.972Z,6.668091
2019-02-27T07:22:12.627Z,6.78894
2019-02-27T07:23:23.565Z,6.869507
2019-02-27T07:24:33.566Z,6.919861
2019-02-27T07:25:42.151Z,6.970215
2019-02-27T07:26:50.688Z,7.070923
2019-02-27T07:27:59.532Z,7.211914
2019-02-27T07:29:10.098Z,7.332764
2019-02-27T07:30:20.652Z,7.483826
2019-02-27T07:31:30.212Z,7.584534
2019-02-27T07:32:39.752Z,7.755737
2019-02-27T07:33:49.374Z,7.947083
2019-02-27T07:34:58.922Z,8.047791
2019-02-27T07:36:08.473Z,8.128357
2019-02-27T07:37:18.039Z,8.057861
2019-02-27T07:38:27.633Z,8.078003
2019-02-27T07:39:37.275Z,7.997437
2019-02-27T07:40:46.844Z,7.997437
2019-02-27T07:41:56.403Z,8.007507
2019-02-27T07:43:06.399Z,8.128357
2019-02-27T07:44:15.588Z,8.259277
2019-02-27T07:45:25.176Z,8.380127
2019-02-27T07:46:35.547Z,8.521118
2019-02-27T07:47:44.273Z,8.712463
2019-02-27T07:48:56.230Z,8.853455
2019-02-27T07:50:05.933Z,8.994446
2019-02-27T07:51:12.949Z,9.135437
2019-02-27T07:52:23.501Z,9.185791
2019-02-27T07:53:34.013Z,9.155579
2019-02-27T07:54:43.612Z,8.974304
2019-02-27T07:55:53.176Z,8.92395
2019-02-27T07:57:02.797Z,9.0448
2019-02-27T07:58:12.355Z,9.246216
2019-02-27T07:59:21.925Z,9.467773
2019-02-27T08:00:31.479Z,9.659119
2019-02-27T08:01:43.621Z,9.860535
2019-02-27T08:02:50.625Z,9.981384
2019-02-27T08:04:00.221Z,10.132446
2019-02-27T08:05:09.784Z,10.253296
2019-02-27T08:06:19.358Z,10.374146
2019-02-27T08:07:28.922Z,10.464783
2019-02-27T08:08:38.535Z,10.585632
2019-02-27T08:09:48.181Z,10.67627
2019-02-27T08:10:57.750Z,10.605774
2019-02-27T08:12:07.297Z,10.666199
2019-02-27T08:13:17.864Z,10.746765
2019-02-27T08:14:28.501Z,10.917969
2019-02-27T08:15:39.019Z,11.069031
2019-02-27T08:16:48.571Z,11.230164
2019-02-27T08:17:59.165Z,11.371155
2019-02-27T08:19:11.006Z,11.471863
2019-02-27T08:20:20.945Z,11.622925
2019-02-27T08:21:28.863Z,11.773987
2019-02-27T08:22:38.383Z,11.965332
2019-02-27T08:23:47.932Z,12.126465
2019-02-27T08:24:57.527Z,12.267456
2019-02-27T08:26:07.135Z,12.358093
2019-02-27T08:27:16.686Z,12.44873
2019-02-27T08:28:26.231Z,12.599792
2019-02-27T08:29:35.850Z,12.579651
2019-02-27T08:30:45.410Z,12.609863
2019-02-27T08:31:54.972Z,12.720642
2019-02-27T08:33:08.107Z,12.911987
2019-02-27T08:34:16.077Z,13.083191
2019-02-27T08:35:25.645Z,13.163757
2019-02-27T08:36:35.232Z,13.334961
2019-02-27T08:37:44.813Z,13.465881
2019-02-27T08:38:55.376Z,13.586731
2019-02-27T08:40:04.954Z,13.768005
2019-02-27T08:41:14.531Z,13.919067
2019-02-27T08:42:24.105Z,13.94928
2019-02-27T08:43:34.664Z,14.120483
2019-02-27T08:44:45.742Z,14.261475
2019-02-27T08:45:53.808Z,14.352112
2019-02-27T08:47:04.444Z,14.45282
2019-02-27T08:48:16.822Z,14.553528
2019-02-27T08:49:24.894Z,14.654236
2019-02-27T08:50:32.952Z,14.58374
2019-02-27T08:51:42.670Z,14.432678
2019-02-27T08:52:52.050Z,14.442749
2019-02-27T08:54:01.606Z,14.503174
2019-02-27T08:55:18.575Z,14.593811
2019-02-27T08:56:21.726Z,14.603882
2019-02-27T08:57:31.302Z,14.442749
2019-02-27T08:58:40.882Z,14.412537
2019-02-27T08:59:50.442Z,14.513245
2019-02-27T09:00:59.970Z,14.533386
2019-02-27T09:02:09.560Z,14.684448
2019-02-27T09:03:20.441Z,14.805298
2019-02-27T09:04:28.728Z,14.83551
2019-02-27T09:05:38.351Z,14.966431
2019-02-27T09:06:47.880Z,15.107422
2019-02-27T09:07:58.427Z,15.278625
2019-02-27T09:09:08.071Z,15.540466
2019-02-27T09:10:18.565Z,15.772095
2019-02-27T09:11:29.101Z,15.943298
2019-02-27T09:12:40.293Z,16.09436
2019-02-27T09:13:50.205Z,16.225281
2019-02-27T09:14:59.799Z,16.285706
2019-02-27T09:16:09.348Z,16.406555
2019-02-27T09:17:18.855Z,16.46698
2019-02-27T09:18:28.348Z,16.567688
2019-02-27T09:19:37.834Z,16.577759
2019-02-27T09:20:47.336Z,16.638184
2019-02-27T09:21:56.827Z,16.738892
2019-02-27T09:23:06.311Z,16.859741
2019-02-27T09:24:15.814Z,16.889954
2019-02-27T09:25:25.334Z,16.97052
2019-02-27T09:26:36.769Z,17.151794
2019-02-27T09:27:44.327Z,17.363281
2019-02-27T09:28:53.836Z,17.494202
2019-02-27T09:30:03.361Z,17.625122
2019-02-27T09:31:12.943Z,17.665405
2019-02-27T09:32:22.441Z,17.776184
2019-02-27T09:33:38.493Z,17.85675
2019-02-27T09:34:41.412Z,17.947388
2019-02-27T09:35:50.953Z,18.068237
2019-02-27T09:37:00.460Z,18.09845
2019-02-27T09:38:09.965Z,18.189087
2019-02-27T09:39:19.472Z,18.189087
2019-02-27T09:40:30.065Z,18.259583
2019-02-27T09:41:45.941Z,18.330078
2019-02-27T09:42:50.119Z,18.330078
2019-02-27T09:44:01.275Z,18.430786
2019-02-27T09:45:11.074Z,18.581848
2019-02-27T09:46:19.438Z,18.652344
2019-02-27T09:47:28.002Z,18.773193
2019-02-27T09:48:37.509Z,18.904114
2019-02-27T09:49:47.016Z,18.964539
2019-02-27T09:50:57.019Z,19.075317
2019-02-27T09:52:06.036Z,19.266663
2019-02-27T09:53:15.547Z,19.387512
2019-02-27T09:54:25.061Z,19.387512
2019-02-27T09:55:34.583Z,19.48822
2019-02-27T09:56:44.081Z,19.447937
2019-02-27T09:57:53.580Z,19.337158
2019-02-27T09:59:03.079Z,19.10553
2019-02-27T10:00:12.594Z,19.024963
2019-02-27T10:01:22.099Z,18.98468
2019-02-27T10:02:32.598Z,18.904114
2019-02-27T10:03:43.124Z,19.10553
2019-02-27T10:04:52.629Z,19.216309
2019-02-27T10:06:03.132Z,19.3573
2019-02-27T10:07:14.559Z,19.437866
2019-02-27T10:08:25.181Z,19.48822
2019-02-27T10:09:34.425Z,19.367371
2019-02-27T10:10:44.701Z,19.296875
2019-02-27T10:11:52.153Z,19.155884
2019-02-27T10:13:03.212Z,19.135742
2019-02-27T10:14:09.575Z,19.065247
2019-02-27T10:15:19.081Z,19.085388
2019-02-27T10:16:28.562Z,19.266663
2019-02-27T10:17:38.045Z,19.397583
2019-02-27T10:18:47.537Z,19.639282
2019-02-27T10:20:01.254Z,19.820557
2019-02-27T10:21:06.550Z,20.042114
2019-02-27T10:22:17.617Z,20.213318
2019-02-27T10:23:25.522Z,20.414734
2019-02-27T10:24:36.830Z,20.475159
2019-02-27T10:25:44.525Z,20.646362
2019-02-27T10:26:55.009Z,20.74707
2019-02-27T10:28:04.861Z,20.777283
2019-02-27T10:29:14.240Z,20.777283
2019-02-27T10:30:23.536Z,20.777283
2019-02-27T10:31:33.037Z,20.686646
2019-02-27T10:32:42.554Z,20.696716
2019-02-27T10:33:52.051Z,20.797424
2019-02-27T10:35:01.551Z,20.918274
2019-02-27T10:36:11.071Z,20.99884
2019-02-27T10:37:20.686Z,21.049194
2019-02-27T10:38:30.074Z,21.200256
2019-02-27T10:39:40.572Z,21.290894
2019-02-27T10:40:50.086Z,21.431885
2019-02-27T10:41:59.587Z,21.482239
2019-02-27T10:43:09.085Z,21.462097
2019-02-27T10:44:18.594Z,21.24054
2019-02-27T10:45:28.115Z,20.948486
2019-02-27T10:46:37.620Z,20.807495
2019-02-27T10:47:47.127Z,20.74707
2019-02-27T10:48:56.625Z,20.696716
2019-02-27T10:50:06.128Z,20.74707
2019-02-27T10:51:15.643Z,20.61615
2019-02-27T10:52:25.152Z,20.475159
2019-02-27T10:53:34.656Z,20.444946
2019-02-27T10:54:44.159Z,20.575867
2019-02-27T10:55:53.672Z,20.716858
2019-02-27T10:57:03.182Z,20.515442
2019-02-27T10:58:13.146Z,20.555725
2019-02-27T10:59:23.016Z,20.505371
2019-02-27T11:00:30.689Z,20.555725
2019-02-27T11:01:40.186Z,19.911194
2019-02-27T11:02:52.331Z,19.840698
2019-02-27T11:04:00.453Z,20.021973
2019-02-27T11:05:08.681Z,20.24353
2019-02-27T11:06:19.180Z,20.434875
2019-02-27T11:07:30.155Z,20.596008
2019-02-27T11:08:39.170Z,20.686646
2019-02-27T11:09:48.679Z,20.716858
2019-02-27T11:10:58.196Z,20.86792
2019-02-27T11:12:08.695Z,20.98877
2019-02-27T11:13:18.201Z,21.139832
2019-02-27T11:14:31.604Z,21.210327
2019-02-27T11:15:40.817Z,20.968628
2019-02-27T11:16:46.672Z,21.069336
2019-02-27T11:17:56.177Z,21.049194
2019-02-27T11:19:06.656Z,21.139832
2019-02-27T11:20:20.196Z,21.170044
2019-02-27T11:21:26.634Z,21.24054
2019-02-27T11:22:36.147Z,21.37146
2019-02-27T11:23:45.656Z,21.572876
2019-02-27T11:24:55.182Z,21.673584
2019-02-27T11:26:04.697Z,21.462097
2019-02-27T11:27:14.201Z,21.462097
2019-02-27T11:28:23.699Z,21.512451
2019-02-27T11:29:33.203Z,21.62323
2019-02-27T11:30:42.732Z,21.75415
2019-02-27T11:31:52.232Z,21.834717
2019-02-27T11:33:01.798Z,21.925354
2019-02-27T11:34:11.303Z,22.015991
2019-02-27T11:35:21.998Z,22.12677
2019-02-27T11:36:30.299Z,22.227478
2019-02-27T11:37:40.782Z,22.12677
2019-02-27T11:38:50.290Z,22.096558
2019-02-27T11:40:00.780Z,22.146912
2019-02-27T11:41:10.282Z,22.167053
2019-02-27T11:42:19.771Z,22.277832
2019-02-27T11:43:30.265Z,22.438965
2019-02-27T11:44:40.779Z,22.569885
2019-02-27T11:45:51.253Z,22.700806
2019-02-27T11:47:00.736Z,22.75116
2019-02-27T11:48:11.222Z,22.831726
2019-02-27T11:49:21.816Z,22.932434
2019-02-27T11:50:31.317Z,23.103638
2019-02-27T11:51:40.837Z,23.204346
2019-02-27T11:52:51.332Z,23.355408
2019-02-27T11:54:01.833Z,23.395691
2019-02-27T11:55:11.306Z,23.103638
2019-02-27T11:56:21.853Z,23.184204
2019-02-27T11:57:31.365Z,23.365479
2019-02-27T11:58:40.866Z,23.536682
2019-02-27T11:59:50.367Z,23.587036
2019-02-27T12:00:59.894Z,23.536682
2019-02-27T12:02:09.394Z,23.50647
2019-02-27T12:03:18.901Z,23.798523
2019-02-27T12:04:28.401Z,23.949585
2019-02-27T12:05:37.917Z,24.161072
2019-02-27T12:06:47.428Z,24.322205
2019-02-27T12:07:56.945Z,24.584045
2019-02-27T12:09:06.447Z,24.906311
2019-02-27T12:10:15.959Z,24.976807
2019-02-27T12:11:25.470Z,25.359497
2019-02-27T12:12:34.974Z,25.621338
2019-02-27T12:13:44.481Z,25.852966
2019-02-27T12:14:54.979Z,26.054382
2019-02-27T12:16:04.508Z,26.40686
2019-02-27T12:17:14.995Z,26.65863
2019-02-27T12:18:25.491Z,26.880188
2019-02-27T12:19:34.983Z,26.880188
2019-02-27T12:20:45.493Z,26.255798
2019-02-27T12:21:59.272Z,26.467285
2019-02-27T12:23:04.491Z,26.336365
2019-02-27T12:24:16.312Z,26.628418
2019-02-27T12:25:26.583Z,26.427002
2019-02-27T12:26:34.372Z,26.849976
2019-02-27T12:27:48.883Z,27.101746
2019-02-27T12:28:52.634Z,27.424011
2019-02-27T12:30:02.733Z,27.695923
2019-02-27T12:31:14.113Z,27.675781
2019-02-27T12:32:21.920Z,27.897339
2019-02-27T12:33:29.982Z,28.300171
2019-02-27T12:34:39.495Z,28.390808
2019-02-27T12:35:49.021Z,28.390808
2019-02-27T12:36:58.555Z,28.66272
2019-02-27T12:38:09.060Z,28.843994
2019-02-27T12:39:18.735Z,29.186401
2019-02-27T12:40:28.097Z,29.407959
2019-02-27T12:41:37.606Z,29.810791
2019-02-27T12:42:47.115Z,29.720154
2019-02-27T12:43:56.619Z,29.689941
2019-02-27T12:45:06.128Z,29.881287
2019-02-27T12:46:15.657Z,30.05249
2019-02-27T12:47:25.203Z,30.193481
2019-02-27T12:48:34.713Z,30.062561
2019-02-27T12:49:45.210Z,30.213623
2019-02-27T12:50:55.833Z,30.243835
2019-02-27T12:52:05.328Z,30.284119
2019-02-27T12:53:14.843Z,30.102844
2019-02-27T12:54:26.780Z,28.91449
2019-02-27T12:55:36.218Z,28.894348
2019-02-27T12:56:44.499Z,29.317322
2019-02-27T12:57:53.077Z,29.498596
2019-02-27T12:59:02.346Z,29.659729
2019-02-27T13:00:11.857Z,30.153198
2019-02-27T13:01:21.363Z,30.102844
2019-02-27T13:02:35.581Z,30.122986
2019-02-27T13:03:42.398Z,30.002136
2019-02-27T13:04:52.166Z,29.951782
2019-02-27T13:06:00.879Z,29.256897
2019-02-27T13:07:10.621Z,28.189392
2019-02-27T13:08:18.858Z,28.320312
2019-02-27T13:09:27.878Z,28.763428
2019-02-27T13:10:37.428Z,28.944702
2019-02-27T13:11:46.942Z,29.266968
2019-02-27T13:12:56.453Z,29.528809
2019-02-27T13:14:05.962Z,29.629517
2019-02-27T13:15:15.473Z,30.032349
2019-02-27T13:16:24.985Z,30.324402
2019-02-27T13:17:34.501Z,30.284119
2019-02-27T13:18:44.008Z,30.435181
2019-02-27T13:19:53.531Z,30.374756
2019-02-27T13:21:04.034Z,30.626526
2019-02-27T13:22:13.541Z,30.717163
2019-02-27T13:23:23.059Z,30.606384
2019-02-27T13:24:32.582Z,30.697021
2019-02-27T13:25:42.083Z,29.820862
2019-02-27T13:26:51.592Z,29.347534
2019-02-27T13:28:01.090Z,28.91449
2019-02-27T13:29:10.613Z,29.005127
2019-02-27T13:30:21.124Z,29.186401
2019-02-27T13:31:30.620Z,29.065552